sensor_id;sensor_type;location;lat;lon;timestamp;pressure;altitude;pressure_sealevel;temperature;humidity
46614;BME280;32338;50.430;6.806;2022-07-19T00:01:16;97121.66;;;19.02;57.03
46614;BME280;32338;50.430;6.806;2022-07-19T00:03:43;97120.72;;;18.96;56.71
46614;BME280;32338;50.430;6.806;2022-07-19T00:06:11;97115.47;;;18.90;58.25
46614;BME280;32338;50.430;6.806;2022-07-19T00:08:37;97122.22;;;18.80;59.16
46614;BME280;32338;50.430;6.806;2022-07-19T00:11:04;97124.91;;;18.80;58.80
46614;BME280;32338;50.430;6.806;2022-07-19T00:13:31;97122.69;;;18.77;58.70
46614;BME280;32338;50.430;6.806;2022-07-19T00:15:57;97117.56;;;18.76;58.40
46614;BME280;32338;50.430;6.806;2022-07-19T00:18:24;97125.91;;;18.68;57.45
46614;BME280;32338;50.430;6.806;2022-07-19T00:20:51;97128.97;;;18.59;57.44
46614;BME280;32338;50.430;6.806;2022-07-19T00:23:19;97122.88;;;18.52;58.33
46614;BME280;32338;50.430;6.806;2022-07-19T00:25:46;97120.69;;;18.49;59.22
46614;BME280;32338;50.430;6.806;2022-07-19T00:28:12;97118.47;;;18.46;59.91
46614;BME280;32338;50.430;6.806;2022-07-19T00:30:39;97120.06;;;18.35;60.57
46614;BME280;32338;50.430;6.806;2022-07-19T00:33:06;97118.56;;;18.39;58.85
46614;BME280;32338;50.430;6.806;2022-07-19T00:35:33;97113.59;;;18.43;59.42
46614;BME280;32338;50.430;6.806;2022-07-19T00:38:03;97117.50;;;18.40;58.38
46614;BME280;32338;50.430;6.806;2022-07-19T00:40:32;97111.66;;;18.31;58.93
46614;BME280;32338;50.430;6.806;2022-07-19T00:42:58;97113.41;;;18.26;58.55
46614;BME280;32338;50.430;6.806;2022-07-19T00:45:25;97120.03;;;18.23;58.86
46614;BME280;32338;50.430;6.806;2022-07-19T00:47:52;97109.78;;;18.20;58.13
46614;BME280;32338;50.430;6.806;2022-07-19T00:50:19;97112.34;;;18.15;58.73
46614;BME280;32338;50.430;6.806;2022-07-19T00:52:49;97108.97;;;18.08;59.60
46614;BME280;32338;50.430;6.806;2022-07-19T00:55:17;97106.38;;;18.01;60.33
46614;BME280;32338;50.430;6.806;2022-07-19T00:57:46;97116.53;;;17.92;61.29
46614;BME280;32338;50.430;6.806;2022-07-19T01:00:14;97115.59;;;17.87;63.37
46614;BME280;32338;50.430;6.806;2022-07-19T01:02:42;97110.63;;;17.90;63.41
46614;BME280;32338;50.430;6.806;2022-07-19T01:05:10;97108.50;;;17.92;62.84
46614;BME280;32338;50.430;6.806;2022-07-19T01:07:39;97108.97;;;17.89;62.24
46614;BME280;32338;50.430;6.806;2022-07-19T01:10:08;97115.59;;;17.87;61.02
46614;BME280;32338;50.430;6.806;2022-07-19T01:12:36;97114.38;;;17.71;65.03
46614;BME280;32338;50.430;6.806;2022-07-19T01:15:12;97110.59;;;17.60;66.63
46614;BME280;32338;50.430;6.806;2022-07-19T01:17:39;97118.38;;;17.61;64.76
46614;BME280;32338;50.430;6.806;2022-07-19T01:20:07;97106.22;;;17.65;63.58
46614;BME280;32338;50.430;6.806;2022-07-19T01:22:36;97108.75;;;17.60;63.75
46614;BME280;32338;50.430;6.806;2022-07-19T01:25:03;97111.03;;;17.57;62.69
46614;BME280;32338;50.430;6.806;2022-07-19T01:27:30;97113.72;;;17.57;62.98
46614;BME280;32338;50.430;6.806;2022-07-19T01:29:56;97096.66;;;17.58;66.51
46614;BME280;32338;50.430;6.806;2022-07-19T01:32:23;97108.13;;;17.58;63.43
46614;BME280;32338;50.430;6.806;2022-07-19T01:34:50;97107.34;;;17.58;62.56
46614;BME280;32338;50.430;6.806;2022-07-19T01:37:18;97106.38;;;17.52;63.14
46614;BME280;32338;50.430;6.806;2022-07-19T01:39:46;97101.78;;;17.41;63.76
46614;BME280;32338;50.430;6.806;2022-07-19T01:42:12;97105.94;;;17.37;63.98
46614;BME280;32338;50.430;6.806;2022-07-19T01:44:39;97108.09;;;17.28;64.63
46614;BME280;32338;50.430;6.806;2022-07-19T01:47:06;97097.47;;;17.21;64.70
46614;BME280;32338;50.430;6.806;2022-07-19T01:49:32;97104.97;;;17.12;66.16
46614;BME280;32338;50.430;6.806;2022-07-19T01:51:59;97099.63;;;17.12;66.53
46614;BME280;32338;50.430;6.806;2022-07-19T01:54:26;97099.69;;;17.06;67.20
46614;BME280;32338;50.430;6.806;2022-07-19T01:56:54;97095.41;;;17.05;67.36
46614;BME280;32338;50.430;6.806;2022-07-19T01:59:20;97086.59;;;17.04;69.09
46614;BME280;32338;50.430;6.806;2022-07-19T02:01:47;97081.09;;;16.99;68.95
46614;BME280;32338;50.430;6.806;2022-07-19T02:04:14;97085.53;;;16.80;71.95
46614;BME280;32338;50.430;6.806;2022-07-19T02:06:40;97084.84;;;16.66;71.08
46614;BME280;32338;50.430;6.806;2022-07-19T02:09:07;97083.09;;;16.78;69.97
46614;BME280;32338;50.430;6.806;2022-07-19T02:11:34;97082.47;;;16.83;68.95
46614;BME280;32338;50.430;6.806;2022-07-19T02:14:06;97074.22;;;16.84;67.52
46614;BME280;32338;50.430;6.806;2022-07-19T02:16:34;97074.06;;;16.79;68.49
46614;BME280;32338;50.430;6.806;2022-07-19T02:19:01;97070.34;;;16.62;72.36
46614;BME280;32338;50.430;6.806;2022-07-19T02:21:28;97070.25;;;16.68;69.39
46614;BME280;32338;50.430;6.806;2022-07-19T02:23:54;97068.44;;;16.69;68.33
46614;BME280;32338;50.430;6.806;2022-07-19T02:26:21;97068.47;;;16.62;72.60
46614;BME280;32338;50.430;6.806;2022-07-19T02:28:48;97066.78;;;16.68;69.64
46614;BME280;32338;50.430;6.806;2022-07-19T02:31:16;97072.16;;;16.61;67.98
46614;BME280;32338;50.430;6.806;2022-07-19T02:33:43;97067.91;;;16.60;68.90
46614;BME280;32338;50.430;6.806;2022-07-19T02:36:09;97063.75;;;16.64;68.22
46614;BME280;32338;50.430;6.806;2022-07-19T02:38:36;97068.28;;;16.64;68.21
46614;BME280;32338;50.430;6.806;2022-07-19T02:41:04;97067.66;;;16.62;70.23
46614;BME280;32338;50.430;6.806;2022-07-19T02:43:31;97061.16;;;16.58;68.20
46614;BME280;32338;50.430;6.806;2022-07-19T02:45:58;97068.38;;;16.50;71.08
46614;BME280;32338;50.430;6.806;2022-07-19T02:48:26;97061.91;;;16.40;73.56
46614;BME280;32338;50.430;6.806;2022-07-19T02:50:52;97071.59;;;16.34;75.35
46614;BME280;32338;50.430;6.806;2022-07-19T02:53:19;97060.13;;;16.33;71.65
46614;BME280;32338;50.430;6.806;2022-07-19T02:55:46;97064.00;;;16.37;71.29
46614;BME280;32338;50.430;6.806;2022-07-19T02:58:13;97064.50;;;16.21;74.76
46614;BME280;32338;50.430;6.806;2022-07-19T03:00:39;97065.22;;;16.10;74.88
46614;BME280;32338;50.430;6.806;2022-07-19T03:03:06;97066.53;;;16.00;77.30
46614;BME280;32338;50.430;6.806;2022-07-19T03:05:52;97065.50;;;16.01;75.53
46614;BME280;32338;50.430;6.806;2022-07-19T03:08:19;97063.97;;;16.12;72.51
46614;BME280;32338;50.430;6.806;2022-07-19T03:10:45;97062.72;;;16.15;70.80
46614;BME280;32338;50.430;6.806;2022-07-19T03:13:12;97075.47;;;16.13;71.46
46614;BME280;32338;50.430;6.806;2022-07-19T03:15:39;97062.34;;;16.11;71.29
46614;BME280;32338;50.430;6.806;2022-07-19T03:18:05;97069.75;;;16.09;70.88
46614;BME280;32338;50.430;6.806;2022-07-19T03:20:32;97068.97;;;16.02;71.46
46614;BME280;32338;50.430;6.806;2022-07-19T03:23:01;97067.31;;;16.01;71.19
46614;BME280;32338;50.430;6.806;2022-07-19T03:25:27;97060.81;;;15.97;72.12
46614;BME280;32338;50.430;6.806;2022-07-19T03:27:54;97059.16;;;15.96;73.36
46614;BME280;32338;50.430;6.806;2022-07-19T03:30:21;97063.28;;;15.92;73.91
46614;BME280;32338;50.430;6.806;2022-07-19T03:32:48;97062.31;;;15.79;76.86
46614;BME280;32338;50.430;6.806;2022-07-19T03:35:15;97049.03;;;15.72;81.04
46614;BME280;32338;50.430;6.806;2022-07-19T03:37:41;97053.31;;;15.80;76.87
46614;BME280;32338;50.430;6.806;2022-07-19T03:40:11;97060.47;;;15.80;77.51
46614;BME280;32338;50.430;6.806;2022-07-19T03:42:38;97066.28;;;15.70;81.04
46614;BME280;32338;50.430;6.806;2022-07-19T03:45:05;97066.56;;;15.48;81.83
46614;BME280;32338;50.430;6.806;2022-07-19T03:47:32;97067.59;;;15.47;82.47
46614;BME280;32338;50.430;6.806;2022-07-19T03:49:59;97067.31;;;15.62;76.76
46614;BME280;32338;50.430;6.806;2022-07-19T03:52:25;97065.88;;;15.66;77.42
46614;BME280;32338;50.430;6.806;2022-07-19T03:54:52;97069.34;;;15.67;76.26
46614;BME280;32338;50.430;6.806;2022-07-19T03:57:20;97073.88;;;15.66;75.63
46614;BME280;32338;50.430;6.806;2022-07-19T03:59:47;97063.03;;;15.61;76.02
46614;BME280;32338;50.430;6.806;2022-07-19T04:02:13;97071.66;;;15.56;76.31
46614;BME280;32338;50.430;6.806;2022-07-19T04:04:40;97081.13;;;15.52;78.10
46614;BME280;32338;50.430;6.806;2022-07-19T04:07:07;97073.31;;;15.51;78.34
46614;BME280;32338;50.430;6.806;2022-07-19T04:09:34;97067.97;;;15.51;76.32
46614;BME280;32338;50.430;6.806;2022-07-19T04:12:00;97076.19;;;15.49;75.99
46614;BME280;32338;50.430;6.806;2022-07-19T04:14:28;97084.00;;;15.44;77.04
46614;BME280;32338;50.430;6.806;2022-07-19T04:16:55;97079.47;;;15.45;76.94
46614;BME280;32338;50.430;6.806;2022-07-19T04:19:22;97075.00;;;15.45;78.86
46614;BME280;32338;50.430;6.806;2022-07-19T04:21:48;97077.03;;;15.43;79.34
46614;BME280;32338;50.430;6.806;2022-07-19T04:24:15;97076.84;;;15.38;83.97
46614;BME280;32338;50.430;6.806;2022-07-19T04:26:42;97076.69;;;15.33;84.15
46614;BME280;32338;50.430;6.806;2022-07-19T04:29:08;97080.13;;;15.40;80.95
46614;BME280;32338;50.430;6.806;2022-07-19T04:31:36;97075.84;;;15.39;80.39
46614;BME280;32338;50.430;6.806;2022-07-19T04:34:03;97073.44;;;15.24;82.84
46614;BME280;32338;50.430;6.806;2022-07-19T04:36:30;97067.69;;;15.27;83.48
46614;BME280;32338;50.430;6.806;2022-07-19T04:38:56;97071.34;;;15.33;81.42
46614;BME280;32338;50.430;6.806;2022-07-19T04:41:23;97070.50;;;15.39;80.15
46614;BME280;32338;50.430;6.806;2022-07-19T04:43:50;97075.47;;;15.29;83.63
46614;BME280;32338;50.430;6.806;2022-07-19T04:46:16;97076.69;;;15.33;85.63
46614;BME280;32338;50.430;6.806;2022-07-19T04:48:44;97076.28;;;15.29;87.62
46614;BME280;32338;50.430;6.806;2022-07-19T04:51:11;97075.41;;;15.42;82.33
46614;BME280;32338;50.430;6.806;2022-07-19T04:53:38;97072.38;;;15.32;85.83
46614;BME280;32338;50.430;6.806;2022-07-19T04:56:05;97078.78;;;15.17;85.11
46614;BME280;32338;50.430;6.806;2022-07-19T04:58:32;97079.41;;;15.06;85.93
46614;BME280;32338;50.430;6.806;2022-07-19T05:00:59;97076.72;;;15.19;85.92
46614;BME280;32338;50.430;6.806;2022-07-19T05:03:25;97073.00;;;15.27;84.10
46614;BME280;32338;50.430;6.806;2022-07-19T05:05:53;97066.81;;;15.40;85.46
46614;BME280;32338;50.430;6.806;2022-07-19T05:08:20;97068.38;;;15.54;82.65
46614;BME280;32338;50.430;6.806;2022-07-19T05:10:47;97071.47;;;15.51;84.55
46614;BME280;32338;50.430;6.806;2022-07-19T05:13:14;97076.19;;;15.49;88.62
46614;BME280;32338;50.430;6.806;2022-07-19T05:15:40;97070.34;;;15.34;87.92
46614;BME280;32338;50.430;6.806;2022-07-19T05:18:07;97073.03;;;15.20;87.89
46614;BME280;32338;50.430;6.806;2022-07-19T05:20:34;97068.56;;;15.14;90.27
46614;BME280;32338;50.430;6.806;2022-07-19T05:23:02;97071.22;;;15.14;91.32
46614;BME280;32338;50.430;6.806;2022-07-19T05:25:29;97070.16;;;15.22;93.74
46614;BME280;32338;50.430;6.806;2022-07-19T05:27:55;97073.06;;;15.14;91.74
46614;BME280;32338;50.430;6.806;2022-07-19T05:30:23;97070.38;;;15.20;93.78
46614;BME280;32338;50.430;6.806;2022-07-19T05:32:49;97072.16;;;15.40;93.93
46614;BME280;32338;50.430;6.806;2022-07-19T05:35:16;97071.31;;;15.39;94.91
46614;BME280;32338;50.430;6.806;2022-07-19T05:37:42;97069.66;;;15.45;95.36
46614;BME280;32338;50.430;6.806;2022-07-19T05:40:11;97073.13;;;15.46;97.36
46614;BME280;32338;50.430;6.806;2022-07-19T05:42:38;97071.09;;;15.41;93.20
46614;BME280;32338;50.430;6.806;2022-07-19T05:45:05;97070.28;;;15.40;93.96
46614;BME280;32338;50.430;6.806;2022-07-19T05:47:32;97070.06;;;15.42;93.49
46614;BME280;32338;50.430;6.806;2022-07-19T05:49:58;97067.81;;;15.46;91.83
46614;BME280;32338;50.430;6.806;2022-07-19T05:52:25;97064.25;;;15.59;90.94
46614;BME280;32338;50.430;6.806;2022-07-19T05:54:52;97063.16;;;15.73;91.38
46614;BME280;32338;50.430;6.806;2022-07-19T05:57:20;97061.91;;;15.82;91.63
46614;BME280;32338;50.430;6.806;2022-07-19T05:59:47;97058.03;;;15.85;91.48
46614;BME280;32338;50.430;6.806;2022-07-19T06:02:13;97064.06;;;15.99;91.43
46614;BME280;32338;50.430;6.806;2022-07-19T06:04:42;97057.44;;;16.08;92.92
46614;BME280;32338;50.430;6.806;2022-07-19T06:07:08;97059.69;;;16.11;91.09
46614;BME280;32338;50.430;6.806;2022-07-19T06:09:35;97057.94;;;16.24;92.15
46614;BME280;32338;50.430;6.806;2022-07-19T06:12:02;97058.84;;;16.36;92.13
46614;BME280;32338;50.430;6.806;2022-07-19T06:14:30;97061.69;;;16.41;92.64
46614;BME280;32338;50.430;6.806;2022-07-19T06:16:57;97067.38;;;16.51;92.39
46614;BME280;32338;50.430;6.806;2022-07-19T06:19:24;97061.88;;;16.65;92.07
46614;BME280;32338;50.430;6.806;2022-07-19T06:21:51;97067.38;;;16.70;92.62
46614;BME280;32338;50.430;6.806;2022-07-19T06:24:18;97071.25;;;16.74;92.54
46614;BME280;32338;50.430;6.806;2022-07-19T06:26:45;97073.84;;;16.81;92.18
46614;BME280;32338;50.430;6.806;2022-07-19T06:29:12;97066.38;;;16.90;92.13
46614;BME280;32338;50.430;6.806;2022-07-19T06:31:40;97062.03;;;16.95;92.25
46614;BME280;32338;50.430;6.806;2022-07-19T06:34:06;97062.34;;;17.06;91.83
46614;BME280;32338;50.430;6.806;2022-07-19T06:36:33;97068.34;;;17.20;90.95
46614;BME280;32338;50.430;6.806;2022-07-19T06:39:00;97066.97;;;17.29;92.25
46614;BME280;32338;50.430;6.806;2022-07-19T06:41:26;97071.44;;;17.35;92.19
46614;BME280;32338;50.430;6.806;2022-07-19T06:43:53;97062.75;;;17.40;92.59
46614;BME280;32338;50.430;6.806;2022-07-19T06:46:20;97062.47;;;17.48;92.76
46614;BME280;32338;50.430;6.806;2022-07-19T06:48:48;97068.31;;;17.57;93.50
46614;BME280;32338;50.430;6.806;2022-07-19T06:51:15;97057.28;;;17.65;94.32
46614;BME280;32338;50.430;6.806;2022-07-19T06:53:41;97055.25;;;17.79;94.58
46614;BME280;32338;50.430;6.806;2022-07-19T06:56:08;97058.78;;;17.91;94.05
46614;BME280;32338;50.430;6.806;2022-07-19T06:58:35;97059.66;;;18.04;93.76
46614;BME280;32338;50.430;6.806;2022-07-19T07:01:02;97054.34;;;18.15;89.20
46614;BME280;32338;50.430;6.806;2022-07-19T07:03:29;97063.53;;;18.31;88.50
46614;BME280;32338;50.430;6.806;2022-07-19T07:05:57;97058.56;;;18.47;87.84
46614;BME280;32338;50.430;6.806;2022-07-19T07:08:24;97062.53;;;18.68;86.64
46614;BME280;32338;50.430;6.806;2022-07-19T07:10:51;97062.50;;;18.80;89.50
46614;BME280;32338;50.430;6.806;2022-07-19T07:13:17;97072.06;;;19.00;88.11
46614;BME280;32338;50.430;6.806;2022-07-19T07:15:44;97055.75;;;19.13;87.55
46614;BME280;32338;50.430;6.806;2022-07-19T07:18:11;97063.41;;;19.33;85.47
46614;BME280;32338;50.430;6.806;2022-07-19T07:20:38;97058.44;;;19.54;84.53
46614;BME280;32338;50.430;6.806;2022-07-19T07:23:06;97052.31;;;19.70;88.08
46614;BME280;32338;50.430;6.806;2022-07-19T07:25:33;97054.81;;;19.89;82.22
46614;BME280;32338;50.430;6.806;2022-07-19T07:28:00;97050.63;;;20.10;74.21
46614;BME280;32338;50.430;6.806;2022-07-19T07:30:26;97050.81;;;20.37;82.95
46614;BME280;32338;50.430;6.806;2022-07-19T07:32:55;97057.53;;;20.91;56.33
46614;BME280;32338;50.430;6.806;2022-07-19T07:35:22;97057.09;;;21.44;60.74
46614;BME280;32338;50.430;6.806;2022-07-19T07:37:49;97048.03;;;21.50;71.77
46614;BME280;32338;50.430;6.806;2022-07-19T07:40:17;97053.56;;;21.60;71.85
46614;BME280;32338;50.430;6.806;2022-07-19T07:42:44;97050.47;;;21.74;61.72
46614;BME280;32338;50.430;6.806;2022-07-19T07:45:11;97051.38;;;21.84;62.23
46614;BME280;32338;50.430;6.806;2022-07-19T07:47:39;97048.59;;;22.01;50.74
46614;BME280;32338;50.430;6.806;2022-07-19T07:50:07;97046.66;;;22.29;48.42
46614;BME280;32338;50.430;6.806;2022-07-19T07:52:35;97043.91;;;22.51;49.84
46614;BME280;32338;50.430;6.806;2022-07-19T07:55:04;97050.78;;;22.75;58.02
46614;BME280;32338;50.430;6.806;2022-07-19T07:57:35;97049.56;;;22.98;47.87
46614;BME280;32338;50.430;6.806;2022-07-19T08:00:02;97051.81;;;23.11;47.77
46614;BME280;32338;50.430;6.806;2022-07-19T08:02:29;97047.09;;;23.44;42.39
46614;BME280;32338;50.430;6.806;2022-07-19T08:04:58;97048.47;;;23.52;41.44
46614;BME280;32338;50.430;6.806;2022-07-19T08:07:25;97043.63;;;23.54;43.51
46614;BME280;32338;50.430;6.806;2022-07-19T08:10:00;97039.34;;;23.69;41.80
46614;BME280;32338;50.430;6.806;2022-07-19T08:12:29;97045.38;;;24.02;39.59
46614;BME280;32338;50.430;6.806;2022-07-19T08:14:58;97043.78;;;24.26;39.75
46614;BME280;32338;50.430;6.806;2022-07-19T08:17:28;97039.16;;;24.42;38.12
46614;BME280;32338;50.430;6.806;2022-07-19T08:19:55;97031.59;;;24.50;38.64
46614;BME280;32338;50.430;6.806;2022-07-19T08:22:25;97035.13;;;24.66;38.30
46614;BME280;32338;50.430;6.806;2022-07-19T08:24:53;97033.97;;;24.92;39.50
46614;BME280;32338;50.430;6.806;2022-07-19T08:27:23;97031.72;;;25.25;37.36
46614;BME280;32338;50.430;6.806;2022-07-19T08:29:53;97022.34;;;25.63;35.46
46614;BME280;32338;50.430;6.806;2022-07-19T08:32:24;97024.16;;;25.83;34.74
46614;BME280;32338;50.430;6.806;2022-07-19T08:34:53;97025.19;;;26.27;32.05
46614;BME280;32338;50.430;6.806;2022-07-19T08:37:20;97024.09;;;26.28;32.58
46614;BME280;32338;50.430;6.806;2022-07-19T08:39:49;97027.22;;;26.40;31.19
46614;BME280;32338;50.430;6.806;2022-07-19T08:42:20;97019.44;;;26.63;31.66
46614;BME280;32338;50.430;6.806;2022-07-19T08:44:50;97017.13;;;26.80;30.33
46614;BME280;32338;50.430;6.806;2022-07-19T08:47:18;97014.06;;;26.58;32.82
46614;BME280;32338;50.430;6.806;2022-07-19T08:49:47;97015.00;;;26.77;30.17
46614;BME280;32338;50.430;6.806;2022-07-19T08:52:16;97006.88;;;26.72;30.36
46614;BME280;32338;50.430;6.806;2022-07-19T08:54:43;97009.22;;;26.84;28.97
46614;BME280;32338;50.430;6.806;2022-07-19T08:57:10;97002.59;;;26.95;28.21
46614;BME280;32338;50.430;6.806;2022-07-19T08:59:54;97008.66;;;26.87;29.93
46614;BME280;32338;50.430;6.806;2022-07-19T09:02:21;97009.31;;;26.98;30.04
46614;BME280;32338;50.430;6.806;2022-07-19T09:05:00;97001.13;;;27.27;29.18
46614;BME280;32338;50.430;6.806;2022-07-19T09:07:29;97003.72;;;27.57;27.62
46614;BME280;32338;50.430;6.806;2022-07-19T09:10:13;96999.19;;;27.90;25.97
46614;BME280;32338;50.430;6.806;2022-07-19T09:12:59;97003.69;;;27.81;29.14
46614;BME280;32338;50.430;6.806;2022-07-19T09:15:51;97002.34;;;27.78;27.31
46614;BME280;32338;50.430;6.806;2022-07-19T09:18:23;96993.84;;;27.85;26.38
46614;BME280;32338;50.430;6.806;2022-07-19T09:21:03;97003.88;;;28.37;25.52
46614;BME280;32338;50.430;6.806;2022-07-19T09:23:40;96986.97;;;28.26;27.21
46614;BME280;32338;50.430;6.806;2022-07-19T09:26:10;96990.31;;;28.37;25.07
46614;BME280;32338;50.430;6.806;2022-07-19T09:28:42;96995.78;;;28.18;25.13
46614;BME280;32338;50.430;6.806;2022-07-19T09:31:11;96990.16;;;28.14;25.65
46614;BME280;32338;50.430;6.806;2022-07-19T09:33:42;96992.41;;;28.26;24.67
46614;BME280;32338;50.430;6.806;2022-07-19T09:36:15;96993.44;;;28.44;25.58
46614;BME280;32338;50.430;6.806;2022-07-19T09:38:42;96982.56;;;28.44;25.33
46614;BME280;32338;50.430;6.806;2022-07-19T09:41:17;96982.09;;;28.56;24.85
46614;BME280;32338;50.430;6.806;2022-07-19T09:43:54;96989.66;;;28.59;25.25
46614;BME280;32338;50.430;6.806;2022-07-19T09:46:30;96990.41;;;28.78;24.91
46614;BME280;32338;50.430;6.806;2022-07-19T09:49:08;96977.41;;;28.75;26.31
46614;BME280;32338;50.430;6.806;2022-07-19T09:51:40;96976.41;;;28.85;25.72
46614;BME280;32338;50.430;6.806;2022-07-19T09:54:15;96986.16;;;29.00;24.00
46614;BME280;32338;50.430;6.806;2022-07-19T09:56:46;96976.78;;;29.06;23.45
46614;BME280;32338;50.430;6.806;2022-07-19T09:59:13;96980.31;;;29.07;26.03
46614;BME280;32338;50.430;6.806;2022-07-19T10:01:42;96968.22;;;29.13;23.58
46614;BME280;32338;50.430;6.806;2022-07-19T10:04:12;96970.22;;;29.21;25.55
46614;BME280;32338;50.430;6.806;2022-07-19T10:06:46;96974.69;;;29.31;24.53
46614;BME280;32338;50.430;6.806;2022-07-19T10:09:18;96972.84;;;29.40;23.96
46614;BME280;32338;50.430;6.806;2022-07-19T10:11:48;96966.13;;;29.60;23.63
46614;BME280;32338;50.430;6.806;2022-07-19T10:14:18;96962.38;;;29.70;23.68
46614;BME280;32338;50.430;6.806;2022-07-19T10:17:01;96954.44;;;29.83;24.15
46614;BME280;32338;50.430;6.806;2022-07-19T10:19:34;96966.41;;;29.96;22.45
46614;BME280;32338;50.430;6.806;2022-07-19T10:22:05;96957.84;;;30.02;23.30
46614;BME280;32338;50.430;6.806;2022-07-19T10:24:51;96954.41;;;29.97;23.15
46614;BME280;32338;50.430;6.806;2022-07-19T10:27:35;96955.59;;;30.36;22.18
46614;BME280;32338;50.430;6.806;2022-07-19T10:30:16;96955.41;;;30.32;22.65
46614;BME280;32338;50.430;6.806;2022-07-19T10:32:44;96940.34;;;30.26;21.97
46614;BME280;32338;50.430;6.806;2022-07-19T10:35:16;96947.13;;;30.37;23.76
46614;BME280;32338;50.430;6.806;2022-07-19T10:38:08;96937.38;;;30.45;23.26
46614;BME280;32338;50.430;6.806;2022-07-19T10:40:40;96934.34;;;30.47;21.26
46614;BME280;32338;50.430;6.806;2022-07-19T10:43:09;96937.91;;;30.56;23.05
46614;BME280;32338;50.430;6.806;2022-07-19T10:45:42;96939.41;;;30.71;23.46
46614;BME280;32338;50.430;6.806;2022-07-19T10:48:12;96942.38;;;30.92;20.24
46614;BME280;32338;50.430;6.806;2022-07-19T10:50:56;96934.84;;;30.98;21.23
46614;BME280;32338;50.430;6.806;2022-07-19T10:53:59;96930.03;;;31.03;21.43
46614;BME280;32338;50.430;6.806;2022-07-19T10:59:38;96922.19;;;31.02;22.99
46614;BME280;32338;50.430;6.806;2022-07-19T11:02:08;96920.34;;;31.20;22.02
46614;BME280;32338;50.430;6.806;2022-07-19T11:04:49;96919.63;;;31.05;21.32
46614;BME280;32338;50.430;6.806;2022-07-19T11:07:18;96918.72;;;31.19;21.72
46614;BME280;32338;50.430;6.806;2022-07-19T11:09:51;96929.16;;;31.26;20.52
46614;BME280;32338;50.430;6.806;2022-07-19T11:12:34;96920.81;;;31.40;20.55
46614;BME280;32338;50.430;6.806;2022-07-19T11:15:05;96920.63;;;31.36;20.04
46614;BME280;32338;50.430;6.806;2022-07-19T11:17:32;96912.78;;;31.34;20.43
46614;BME280;32338;50.430;6.806;2022-07-19T11:20:06;96913.44;;;31.49;19.61
46614;BME280;32338;50.430;6.806;2022-07-19T11:22:34;96903.47;;;31.62;19.49
46614;BME280;32338;50.430;6.806;2022-07-19T11:25:10;96906.53;;;31.60;18.88
46614;BME280;32338;50.430;6.806;2022-07-19T11:27:40;96901.53;;;31.62;20.00
46614;BME280;32338;50.430;6.806;2022-07-19T11:30:08;96897.72;;;31.63;20.55
46614;BME280;32338;50.430;6.806;2022-07-19T11:32:35;96901.22;;;31.81;18.67
46614;BME280;32338;50.430;6.806;2022-07-19T11:35:06;96887.56;;;31.81;18.94
46614;BME280;32338;50.430;6.806;2022-07-19T11:37:35;96889.47;;;31.90;20.80
46614;BME280;32338;50.430;6.806;2022-07-19T11:40:07;96891.81;;;32.09;20.77
46614;BME280;32338;50.430;6.806;2022-07-19T11:42:44;96893.59;;;32.13;21.22
46614;BME280;32338;50.430;6.806;2022-07-19T11:45:13;96888.78;;;32.19;20.26
46614;BME280;32338;50.430;6.806;2022-07-19T11:47:47;96882.81;;;32.26;19.67
46614;BME280;32338;50.430;6.806;2022-07-19T11:50:15;96875.19;;;32.40;20.20
46614;BME280;32338;50.430;6.806;2022-07-19T11:52:48;96872.97;;;32.33;19.01
46614;BME280;32338;50.430;6.806;2022-07-19T11:55:29;96871.09;;;32.85;22.18
46614;BME280;32338;50.430;6.806;2022-07-19T11:58:05;96859.03;;;32.86;23.14
46614;BME280;32338;50.430;6.806;2022-07-19T12:00:41;96855.41;;;32.73;19.75
46614;BME280;32338;50.430;6.806;2022-07-19T12:03:18;96854.28;;;32.74;19.43
46614;BME280;32338;50.430;6.806;2022-07-19T12:06:04;96861.38;;;33.18;20.31
46614;BME280;32338;50.430;6.806;2022-07-19T12:08:41;96868.09;;;33.29;19.82
46614;BME280;32338;50.430;6.806;2022-07-19T12:11:36;96870.16;;;33.32;20.04
46614;BME280;32338;50.430;6.806;2022-07-19T12:14:16;96858.09;;;33.33;19.78
46614;BME280;32338;50.430;6.806;2022-07-19T12:16:46;96850.88;;;33.62;19.05
46614;BME280;32338;50.430;6.806;2022-07-19T12:19:13;96844.47;;;33.91;20.45
46614;BME280;32338;50.430;6.806;2022-07-19T12:21:45;96840.28;;;33.60;18.04
46614;BME280;32338;50.430;6.806;2022-07-19T12:24:17;96842.97;;;33.48;19.94
46614;BME280;32338;50.430;6.806;2022-07-19T12:26:54;96831.72;;;33.62;20.89
46614;BME280;32338;50.430;6.806;2022-07-19T12:29:28;96842.94;;;33.69;19.06
46614;BME280;32338;50.430;6.806;2022-07-19T12:31:58;96837.19;;;33.62;17.62
46614;BME280;32338;50.430;6.806;2022-07-19T12:34:28;96833.84;;;33.90;17.77
46614;BME280;32338;50.430;6.806;2022-07-19T12:36:58;96835.25;;;34.08;19.67
46614;BME280;32338;50.430;6.806;2022-07-19T12:39:28;96827.16;;;34.24;17.71
46614;BME280;32338;50.430;6.806;2022-07-19T12:42:03;96825.00;;;34.30;16.97
46614;BME280;32338;50.430;6.806;2022-07-19T12:44:35;96836.75;;;34.06;16.20
46614;BME280;32338;50.430;6.806;2022-07-19T12:47:04;96824.91;;;34.39;18.44
46614;BME280;32338;50.430;6.806;2022-07-19T12:49:43;96825.09;;;34.21;17.01
46614;BME280;32338;50.430;6.806;2022-07-19T12:52:11;96823.69;;;33.90;17.96
46614;BME280;32338;50.430;6.806;2022-07-19T12:54:39;96820.63;;;34.17;17.55
46614;BME280;32338;50.430;6.806;2022-07-19T12:57:14;96819.63;;;34.21;17.94
46614;BME280;32338;50.430;6.806;2022-07-19T12:59:43;96803.78;;;34.52;19.12
46614;BME280;32338;50.430;6.806;2022-07-19T13:02:13;96818.91;;;34.99;16.70
46614;BME280;32338;50.430;6.806;2022-07-19T13:04:41;96809.91;;;34.86;17.72
46614;BME280;32338;50.430;6.806;2022-07-19T13:07:10;96809.66;;;34.91;15.64
46614;BME280;32338;50.430;6.806;2022-07-19T13:09:39;96817.09;;;34.78;16.80
46614;BME280;32338;50.430;6.806;2022-07-19T13:12:11;96813.16;;;35.04;16.51
46614;BME280;32338;50.430;6.806;2022-07-19T13:14:41;96812.28;;;35.28;16.08